Time;durP1;ratioP1;P1;durP2;ratioP2;P2;SDS_P1;SDS_P2;PMS_P1;PMS_P2;Temp;Humidity;BMP_temperature;BMP_pressure;BME280_temperature;BME280_humidity;BME280_pressure;Samples;Min_cycle;Max_cycle;Signal;HPM_P1;HPM_P2
2022/03/17 00:00:09;;;;;;;21.53;17.90;;;;;;;;;;5100862;28;20610;-78
2022/03/17 00:02:38;;;;;;;22.50;17.77;;;;;;;;;;5099345;28;20248;-78
2022/03/17 00:05:08;;;;;;;23.00;17.97;;;;;;;;;;5100318;28;20201;-78
2022/03/17 00:07:37;;;;;;;22.83;18.90;;;;;;;;;;5083848;28;20226;-79
2022/03/17 00:10:06;;;;;;;19.80;17.10;;;;;;;;;;5098051;28;20699;-78
2022/03/17 00:12:35;;;;;;;22.07;19.03;;;;;;;;;;5101676;28;20193;-78
2022/03/17 00:15:05;;;;;;;22.07;18.07;;;;;;;;;;5100022;28;20200;-78
2022/03/17 00:17:34;;;;;;;20.47;17.83;;;;;;;;;;5099073;28;20229;-78
2022/03/17 00:20:03;;;;;;;22.07;17.93;;;;;;;;;;5099778;28;20641;-78
2022/03/17 00:22:32;;;;;;;22.67;18.80;;;;;;;;;;5101013;28;20221;-77
2022/03/17 00:25:00;;;;;;;20.87;17.93;;;;;;;;;;5099764;28;20205;-78
2022/03/17 00:27:29;;;;;;;22.47;19.10;;;;;;;;;;5099964;28;20240;-77
2022/03/17 00:29:57;;;;;;;21.83;18.47;;;;;;;;;;5098771;28;20204;-77
2022/03/17 00:32:27;;;;;;;21.47;18.70;;;;;;;;;;5100084;28;20615;-78
2022/03/17 00:37:42;;;;;;;20.77;17.60;;;;;;;;;;5104674;28;20224;-78
2022/03/17 00:40:11;;;;;;;20.77;18.50;;;;;;;;;;5104996;28;20214;-76
2022/03/17 00:42:39;;;;;;;21.40;19.10;;;;;;;;;;5104665;28;20221;-79
2022/03/17 00:45:09;;;;;;;22.30;19.17;;;;;;;;;;5105160;28;20205;-78
2022/03/17 00:47:39;;;;;;;22.37;19.20;;;;;;;;;;5104217;28;20225;-77
2022/03/17 00:50:08;;;;;;;22.30;18.70;;;;;;;;;;5104835;28;20194;-77
2022/03/17 00:52:37;;;;;;;22.87;19.03;;;;;;;;;;5104971;28;20609;-78
2022/03/17 00:55:06;;;;;;;21.87;18.83;;;;;;;;;;5104296;28;20227;-78
2022/03/17 00:57:36;;;;;;;23.27;19.20;;;;;;;;;;5103118;28;20230;-77
2022/03/17 01:00:06;;;;;;;21.67;19.37;;;;;;;;;;5101865;28;20202;-77
2022/03/17 01:02:35;;;;;;;23.83;19.90;;;;;;;;;;5103484;28;20229;-78
2022/03/17 01:05:06;;;;;;;23.00;19.90;;;;;;;;;;5103700;28;20201;-78
2022/03/17 01:07:34;;;;;;;23.43;20.20;;;;;;;;;;5087507;28;20603;-79
2022/03/17 01:10:04;;;;;;;23.33;19.70;;;;;;;;;;5100449;28;20738;-78
2022/03/17 01:12:33;;;;;;;24.70;20.03;;;;;;;;;;5102131;28;20579;-78
2022/03/17 01:15:01;;;;;;;23.33;19.80;;;;;;;;;;5104125;28;20198;-78
2022/03/17 01:17:30;;;;;;;22.07;19.67;;;;;;;;;;5101567;28;20220;-78
2022/03/17 01:19:58;;;;;;;24.00;19.73;;;;;;;;;;5102434;28;20653;-79
2022/03/17 01:22:28;;;;;;;24.43;20.37;;;;;;;;;;5103717;28;20239;-77
2022/03/17 01:24:57;;;;;;;24.33;19.80;;;;;;;;;;5104554;28;20194;-77
2022/03/17 01:27:26;;;;;;;26.00;20.37;;;;;;;;;;5102896;28;20226;-77
2022/03/17 01:29:55;;;;;;;22.03;19.57;;;;;;;;;;5104229;28;20202;-78
2022/03/17 01:32:25;;;;;;;26.57;20.73;;;;;;;;;;5103814;28;20653;-79
2022/03/17 01:34:53;;;;;;;23.93;20.13;;;;;;;;;;5102250;28;20201;-78
2022/03/17 01:37:22;;;;;;;24.13;20.80;;;;;;;;;;5102659;28;20287;-77
2022/03/17 01:39:53;;;;;;;26.87;21.37;;;;;;;;;;5103207;28;20254;-77
2022/03/17 01:42:22;;;;;;;24.30;20.80;;;;;;;;;;5102647;28;20225;-77
2022/03/17 01:44:50;;;;;;;24.77;20.80;;;;;;;;;;5101671;28;20247;-78
2022/03/17 01:47:28;;;;;;;22.80;19.47;;;;;;;;;;5100786;28;20252;-77
2022/03/17 01:49:57;;;;;;;24.07;19.93;;;;;;;;;;5100197;28;20204;-79
2022/03/17 01:52:26;;;;;;;23.50;19.43;;;;;;;;;;5100231;28;20669;-77
2022/03/17 01:54:56;;;;;;;21.50;19.27;;;;;;;;;;5100584;28;20206;-79
2022/03/17 01:57:24;;;;;;;24.53;20.67;;;;;;;;;;5100424;28;20244;-77
2022/03/17 01:59:53;;;;;;;25.07;20.40;;;;;;;;;;5098175;28;20208;-78
2022/03/17 02:02:22;;;;;;;24.90;20.47;;;;;;;;;;5099238;28;20275;-78
2022/03/17 02:04:51;;;;;;;23.83;20.20;;;;;;;;;;5099455;28;20206;-78
2022/03/17 02:07:20;;;;;;;22.97;20.47;;;;;;;;;;5097407;28;20225;-78
2022/03/17 02:09:49;;;;;;;25.13;20.60;;;;;;;;;;5097781;28;20208;-78
2022/03/17 02:15:06;;;;;;;25.17;21.20;;;;;;;;;;5097826;28;20558;-78
2022/03/17 02:17:39;;;;;;;25.67;20.73;;;;;;;;;;5097828;28;20229;-79
2022/03/17 02:20:10;;;;;;;24.63;20.80;;;;;;;;;;5096409;28;20698;-78
2022/03/17 02:22:41;;;;;;;23.63;20.60;;;;;;;;;;5095801;28;20707;-78
2022/03/17 02:27:59;;;;;;;24.87;20.33;;;;;;;;;;5093173;28;20613;-77
2022/03/17 02:30:28;;;;;;;24.10;20.17;;;;;;;;;;5089227;28;20201;-79
2022/03/17 02:33:00;;;;;;;22.63;20.00;;;;;;;;;;5095612;28;20253;-77
2022/03/17 02:35:29;;;;;;;24.87;20.40;;;;;;;;;;5096572;28;20194;-78
2022/03/17 02:37:58;;;;;;;25.23;22.17;;;;;;;;;;5096310;28;20262;-77
2022/03/17 02:40:28;;;;;;;26.50;20.77;;;;;;;;;;5096413;28;20290;-78
2022/03/17 02:42:57;;;;;;;26.83;20.73;;;;;;;;;;5096083;28;20708;-78
2022/03/17 02:45:26;;;;;;;25.17;21.10;;;;;;;;;;5079021;28;20289;-79
2022/03/17 02:47:54;;;;;;;24.10;20.93;;;;;;;;;;5095799;28;20560;-78
2022/03/17 02:50:23;;;;;;;25.43;21.33;;;;;;;;;;5094770;28;20613;-77
2022/03/17 02:52:51;;;;;;;25.30;21.90;;;;;;;;;;5095545;28;20217;-78
2022/03/17 02:55:19;;;;;;;24.63;20.70;;;;;;;;;;5096504;28;20198;-77
2022/03/17 02:57:49;;;;;;;25.03;21.20;;;;;;;;;;5096581;28;20236;-78
2022/03/17 03:00:18;;;;;;;24.23;20.73;;;;;;;;;;5095279;28;20259;-77
2022/03/17 03:02:46;;;;;;;23.57;20.73;;;;;;;;;;5095744;28;20217;-79
2022/03/17 03:05:19;;;;;;;24.83;21.30;;;;;;;;;;5095991;28;20205;-77
2022/03/17 03:07:48;;;;;;;24.97;20.87;;;;;;;;;;5095485;28;20225;-78
2022/03/17 03:10:16;;;;;;;24.00;21.30;;;;;;;;;;5097516;28;20208;-79
2022/03/17 03:12:45;;;;;;;23.50;21.00;;;;;;;;;;5102336;28;20205;-79
2022/03/17 03:15:15;;;;;;;25.07;21.50;;;;;;;;;;5084596;28;20198;-79
2022/03/17 03:17:43;;;;;;;23.87;20.43;;;;;;;;;;5081165;28;20254;-78
2022/03/17 03:20:13;;;;;;;25.53;21.67;;;;;;;;;;5098442;28;20277;-80
2022/03/17 03:22:41;;;;;;;24.20;20.90;;;;;;;;;;5102681;28;20221;-77
2022/03/17 03:25:11;;;;;;;24.37;21.20;;;;;;;;;;5101936;28;20231;-78
2022/03/17 03:27:40;;;;;;;26.37;21.63;;;;;;;;;;5100757;28;20222;-78
2022/03/17 03:30:11;;;;;;;25.93;21.87;;;;;;;;;;5101459;28;20208;-78
2022/03/17 03:32:43;;;;;;;28.63;22.67;;;;;;;;;;5101547;28;20217;-80
2022/03/17 03:37:58;;;;;;;24.67;20.97;;;;;;;;;;5104014;28;20221;-78
2022/03/17 03:40:27;;;;;;;25.23;21.43;;;;;;;;;;5103788;28;20216;-78
2022/03/17 03:42:55;;;;;;;26.13;22.23;;;;;;;;;;5106817;28;20559;-77
2022/03/17 03:45:25;;;;;;;25.97;21.77;;;;;;;;;;5110713;28;20208;-79
2022/03/17 03:47:55;;;;;;;25.83;21.90;;;;;;;;;;5110853;28;20217;-77
2022/03/17 03:50:23;;;;;;;25.93;22.20;;;;;;;;;;5111126;28;20263;-79
2022/03/17 03:52:51;;;;;;;26.70;22.07;;;;;;;;;;5110798;28;20198;-78
2022/03/17 03:55:20;;;;;;;24.97;22.27;;;;;;;;;;5109804;28;20657;-78
2022/03/17 03:57:48;;;;;;;25.33;21.93;;;;;;;;;;5110351;28;20218;-78
2022/03/17 04:00:29;;;;;;;25.77;22.90;;;;;;;;;;5110412;28;20212;-78
2022/03/17 04:03:00;;;;;;;26.47;21.80;;;;;;;;;;5110365;28;20216;-78
2022/03/17 04:05:29;;;;;;;25.43;21.63;;;;;;;;;;5111569;28;20198;-77
2022/03/17 04:07:57;;;;;;;24.23;20.63;;;;;;;;;;5111002;28;20256;-78
2022/03/17 04:10:26;;;;;;;28.70;21.57;;;;;;;;;;5110599;28;20210;-79
2022/03/17 04:12:54;;;;;;;26.93;22.80;;;;;;;;;;5110585;28;20209;-79
2022/03/17 04:15:23;;;;;;;29.13;22.03;;;;;;;;;;5110886;28;20421;-79
2022/03/17 04:17:52;;;;;;;24.00;21.10;;;;;;;;;;5110555;28;20681;-78
2022/03/17 04:20:22;;;;;;;23.67;21.17;;;;;;;;;;5110373;28;20219;-79
2022/03/17 04:22:52;;;;;;;26.10;22.27;;;;;;;;;;5106979;28;20280;-79
2022/03/17 04:25:20;;;;;;;25.63;22.23;;;;;;;;;;5108833;28;20263;-79
2022/03/17 04:27:49;;;;;;;24.90;21.63;;;;;;;;;;5108799;28;20221;-78
2022/03/17 04:30:17;;;;;;;25.53;21.93;;;;;;;;;;5107089;28;20197;-78
2022/03/17 04:32:46;;;;;;;24.00;21.23;;;;;;;;;;5108281;28;20209;-79
2022/03/17 04:35:14;;;;;;;24.33;21.73;;;;;;;;;;5107161;28;20209;-78
2022/03/17 04:37:44;;;;;;;25.83;22.30;;;;;;;;;;5105582;28;20233;-78
2022/03/17 04:40:14;;;;;;;25.30;21.83;;;;;;;;;;5106778;28;20202;-79
2022/03/17 04:42:42;;;;;;;28.60;23.30;;;;;;;;;;5108320;28;20500;-79
2022/03/17 04:45:11;;;;;;;27.33;22.57;;;;;;;;;;5106855;28;20218;-79
2022/03/17 04:47:39;;;;;;;27.27;23.63;;;;;;;;;;5108159;28;20221;-79
2022/03/17 04:50:08;;;;;;;25.47;22.17;;;;;;;;;;5104806;28;20194;-77
2022/03/17 04:55:26;;;;;;;26.23;22.20;;;;;;;;;;5107536;28;20182;-79
2022/03/17 04:57:55;;;;;;;25.73;22.53;;;;;;;;;;5107029;28;20222;-78
2022/03/17 05:00:23;;;;;;;25.83;21.97;;;;;;;;;;5107164;28;20204;-78
2022/03/17 05:02:52;;;;;;;25.97;22.40;;;;;;;;;;5108266;28;20852;-79
2022/03/17 05:05:21;;;;;;;28.90;23.23;;;;;;;;;;5107987;28;20214;-79
2022/03/17 05:07:50;;;;;;;26.70;23.23;;;;;;;;;;5107437;28;20221;-79
2022/03/17 05:10:18;;;;;;;25.03;21.53;;;;;;;;;;5107259;28;20239;-78
2022/03/17 05:12:48;;;;;;;27.67;22.67;;;;;;;;;;5106390;28;20198;-78
2022/03/17 05:15:16;;;;;;;25.53;22.77;;;;;;;;;;5106906;28;20201;-79
2022/03/17 05:17:47;;;;;;;27.93;23.17;;;;;;;;;;5107844;28;20222;-79
2022/03/17 05:20:21;;;;;;;25.17;22.07;;;;;;;;;;5106572;28;20194;-78
2022/03/17 05:22:50;;;;;;;27.77;23.07;;;;;;;;;;5101605;28;20198;-79
2022/03/17 05:25:18;;;;;;;27.13;22.33;;;;;;;;;;5075406;28;20222;-77
2022/03/17 05:27:49;;;;;;;25.37;22.43;;;;;;;;;;5084495;28;20226;-77
2022/03/17 05:30:19;;;;;;;26.43;23.17;;;;;;;;;;5095277;28;20196;-77
2022/03/17 05:32:49;;;;;;;26.50;23.70;;;;;;;;;;5094990;28;20220;-77
2022/03/17 05:35:17;;;;;;;28.00;23.47;;;;;;;;;;5093455;28;20201;-77
2022/03/17 05:37:46;;;;;;;25.90;22.03;;;;;;;;;;5094753;28;20712;-77
2022/03/17 05:40:17;;;;;;;26.37;23.23;;;;;;;;;;5092033;28;20206;-78
2022/03/17 05:42:47;;;;;;;25.83;22.87;;;;;;;;;;5093704;28;20205;-77
2022/03/17 05:45:17;;;;;;;25.57;22.87;;;;;;;;;;5082196;28;20271;-77
2022/03/17 05:47:46;;;;;;;24.90;22.20;;;;;;;;;;5085615;28;20225;-77
2022/03/17 05:50:16;;;;;;;25.50;22.73;;;;;;;;;;5094633;28;20255;-77
2022/03/17 05:52:45;;;;;;;25.20;22.27;;;;;;;;;;5094906;28;20206;-77
2022/03/17 05:55:14;;;;;;;25.40;22.70;;;;;;;;;;5094444;28;20201;-77
2022/03/17 05:57:43;;;;;;;27.83;23.00;;;;;;;;;;5093811;28;20225;-77
2022/03/17 06:00:13;;;;;;;25.93;21.97;;;;;;;;;;5094538;28;20205;-77
2022/03/17 06:02:43;;;;;;;25.23;22.23;;;;;;;;;;5074076;28;20531;-78
2022/03/17 06:05:12;;;;;;;25.30;22.60;;;;;;;;;;5086379;28;20244;-78
2022/03/17 06:07:41;;;;;;;25.50;22.17;;;;;;;;;;5086252;28;20229;-77
2022/03/17 06:10:10;;;;;;;25.80;23.00;;;;;;;;;;5093184;28;20286;-76
2022/03/17 06:12:39;;;;;;;25.97;22.60;;;;;;;;;;5093957;28;20630;-77
2022/03/17 06:15:09;;;;;;;24.30;21.70;;;;;;;;;;5084672;28;20194;-76
2022/03/17 06:17:39;;;;;;;25.13;22.37;;;;;;;;;;5092261;28;20620;-76
2022/03/17 06:20:10;;;;;;;27.53;23.67;;;;;;;;;;5093940;28;20190;-76
2022/03/17 06:22:39;;;;;;;28.93;22.70;;;;;;;;;;5079212;28;20259;-76
2022/03/17 06:25:08;;;;;;;24.70;22.00;;;;;;;;;;5073279;28;20720;-76
2022/03/17 06:27:37;;;;;;;26.27;21.83;;;;;;;;;;5093286;28;20236;-76
2022/03/17 06:30:06;;;;;;;25.67;22.07;;;;;;;;;;5093960;28;20198;-76
2022/03/17 06:32:35;;;;;;;25.93;22.27;;;;;;;;;;5093764;28;20259;-77
2022/03/17 06:35:03;;;;;;;26.30;22.60;;;;;;;;;;5083693;28;20190;-77
2022/03/17 06:37:33;;;;;;;26.20;21.93;;;;;;;;;;5093281;28;20292;-76
2022/03/17 06:40:01;;;;;;;24.00;21.50;;;;;;;;;;5089591;28;20198;-76
2022/03/17 06:42:30;;;;;;;25.37;21.57;;;;;;;;;;5094074;28;20664;-76
2022/03/17 06:44:59;;;;;;;25.20;21.83;;;;;;;;;;5093436;28;20215;-76
2022/03/17 06:47:27;;;;;;;25.60;22.80;;;;;;;;;;5093738;28;20228;-76
2022/03/17 06:49:56;;;;;;;25.77;23.07;;;;;;;;;;5093845;28;20602;-76
2022/03/17 06:52:24;;;;;;;25.33;22.00;;;;;;;;;;5093691;28;20236;-77
2022/03/17 06:54:54;;;;;;;26.37;22.33;;;;;;;;;;5093469;28;20193;-75
2022/03/17 06:57:23;;;;;;;24.93;22.23;;;;;;;;;;5093140;28;20225;-77
2022/03/17 06:59:52;;;;;;;26.17;21.90;;;;;;;;;;5092933;28;20205;-76
2022/03/17 07:02:21;;;;;;;27.10;22.07;;;;;;;;;;5093311;28;20645;-76
2022/03/17 07:04:49;;;;;;;24.77;21.87;;;;;;;;;;5093257;28;20317;-76
2022/03/17 07:07:18;;;;;;;25.63;22.50;;;;;;;;;;5092796;28;20229;-75
2022/03/17 07:09:46;;;;;;;25.37;22.77;;;;;;;;;;5093579;28;20237;-75
2022/03/17 07:12:16;;;;;;;25.57;22.77;;;;;;;;;;5093768;28;20586;-76
2022/03/17 07:14:44;;;;;;;23.90;21.37;;;;;;;;;;5093628;28;20198;-77
2022/03/17 07:17:13;;;;;;;25.53;22.43;;;;;;;;;;5093537;28;20225;-75
2022/03/17 07:19:41;;;;;;;26.97;23.33;;;;;;;;;;5093636;28;20213;-76
2022/03/17 07:22:10;;;;;;;26.07;23.27;;;;;;;;;;5093446;28;20208;-76
2022/03/17 07:24:38;;;;;;;29.27;23.90;;;;;;;;;;5093322;28;20230;-76
2022/03/17 07:27:07;;;;;;;28.97;24.53;;;;;;;;;;5093686;28;20214;-75
2022/03/17 07:29:36;;;;;;;28.00;25.00;;;;;;;;;;5092973;28;20235;-77
2022/03/17 07:32:05;;;;;;;29.17;25.90;;;;;;;;;;5092950;28;20661;-76
2022/03/17 07:34:34;;;;;;;29.60;25.90;;;;;;;;;;5076191;28;20208;-76
2022/03/17 07:37:03;;;;;;;29.87;26.00;;;;;;;;;;5081206;28;20278;-76
2022/03/17 07:39:31;;;;;;;30.43;26.43;;;;;;;;;;5093794;28;20220;-77
2022/03/17 07:42:00;;;;;;;28.43;25.43;;;;;;;;;;5093956;28;20254;-76
2022/03/17 07:44:28;;;;;;;29.03;25.20;;;;;;;;;;5093780;28;20201;-77
2022/03/17 07:46:58;;;;;;;32.77;26.53;;;;;;;;;;5092926;28;20270;-76
2022/03/17 07:49:28;;;;;;;34.00;27.20;;;;;;;;;;5093395;28;20193;-77
2022/03/17 07:51:57;;;;;;;32.40;28.20;;;;;;;;;;5093195;28;20209;-75
2022/03/17 07:54:27;;;;;;;32.13;28.33;;;;;;;;;;5092884;28;20255;-76
2022/03/17 07:56:55;;;;;;;32.23;27.93;;;;;;;;;;5093135;28;20221;-77
2022/03/17 07:59:25;;;;;;;31.80;27.37;;;;;;;;;;5098042;28;20225;-77
2022/03/17 08:01:53;;;;;;;32.40;28.30;;;;;;;;;;5096922;28;20210;-77
2022/03/17 08:04:23;;;;;;;33.50;28.67;;;;;;;;;;5097798;28;20201;-78
2022/03/17 08:06:57;;;;;;;35.70;29.83;;;;;;;;;;5085107;28;20686;-77
2022/03/17 08:09:26;;;;;;;34.13;29.27;;;;;;;;;;5078552;28;20622;-76
2022/03/17 08:11:54;;;;;;;34.00;28.80;;;;;;;;;;5076364;28;20205;-75
2022/03/17 08:14:24;;;;;;;33.37;28.70;;;;;;;;;;5093152;28;20259;-77
2022/03/17 08:16:53;;;;;;;37.50;30.20;;;;;;;;;;5096202;28;20221;-76
2022/03/17 08:19:22;;;;;;;35.60;31.70;;;;;;;;;;5096602;28;20197;-76
2022/03/17 08:21:52;;;;;;;35.13;30.40;;;;;;;;;;5096605;28;20366;-76
2022/03/17 08:24:21;;;;;;;35.97;30.80;;;;;;;;;;5095887;28;20246;-76
2022/03/17 08:26:51;;;;;;;37.80;32.33;;;;;;;;;;5096369;28;20291;-76
2022/03/17 08:29:20;;;;;;;39.23;32.43;;;;;;;;;;5096794;28;20186;-79
2022/03/17 08:31:48;;;;;;;38.37;32.17;;;;;;;;;;5094678;28;20208;-77
2022/03/17 08:34:17;;;;;;;39.90;33.23;;;;;;;;;;5095925;28;20202;-76
2022/03/17 08:36:46;;;;;;;41.07;33.33;;;;;;;;;;5088344;28;20226;-77
2022/03/17 08:39:16;;;;;;;41.00;33.80;;;;;;;;;;5095843;28;20197;-76
2022/03/17 08:41:45;;;;;;;39.97;33.43;;;;;;;;;;5096359;28;20201;-77
2022/03/17 08:44:13;;;;;;;41.33;33.93;;;;;;;;;;5096330;28;20205;-75
2022/03/17 08:49:27;;;;;;;41.83;33.27;;;;;;;;;;5096077;28;20676;-77
2022/03/17 08:51:57;;;;;;;40.70;33.97;;;;;;;;;;5095836;28;20209;-76
2022/03/17 08:54:28;;;;;;;44.17;34.90;;;;;;;;;;5095543;28;20251;-77
2022/03/17 08:57:00;;;;;;;44.63;36.17;;;;;;;;;;5096293;28;20218;-78
2022/03/17 08:59:30;;;;;;;42.30;35.47;;;;;;;;;;5095318;28;20209;-77
2022/03/17 09:01:59;;;;;;;45.67;36.73;;;;;;;;;;5095725;28;20661;-75
2022/03/17 09:04:28;;;;;;;46.40;37.50;;;;;;;;;;5095733;28;20220;-78
2022/03/17 09:06:58;;;;;;;48.03;37.97;;;;;;;;;;5095955;28;20278;-77
2022/03/17 09:09:29;;;;;;;49.00;39.50;;;;;;;;;;5094965;28;20209;-74
2022/03/17 09:11:58;;;;;;;47.70;38.43;;;;;;;;;;5095599;28;20202;-76
2022/03/17 09:14:26;;;;;;;47.50;38.73;;;;;;;;;;5095251;28;20201;-75
2022/03/17 09:16:55;;;;;;;50.33;38.57;;;;;;;;;;5095709;28;20222;-77
2022/03/17 09:19:24;;;;;;;47.87;38.27;;;;;;;;;;5095185;28;20204;-75
2022/03/17 09:21:52;;;;;;;51.00;41.17;;;;;;;;;;5095524;28;20649;-76
2022/03/17 09:24:21;;;;;;;49.60;40.40;;;;;;;;;;5094787;28;20672;-77
2022/03/17 09:26:51;;;;;;;42.40;34.87;;;;;;;;;;5094918;28;20267;-75
2022/03/17 09:29:20;;;;;;;32.73;28.37;;;;;;;;;;5081110;28;20213;-76
2022/03/17 09:31:49;;;;;;;33.43;26.67;;;;;;;;;;5095283;28;20197;-77
2022/03/17 09:34:17;;;;;;;28.93;22.67;;;;;;;;;;5095714;28;20676;-77
2022/03/17 09:36:45;;;;;;;21.40;19.20;;;;;;;;;;5085294;28;20234;-76
2022/03/17 09:42:02;;;;;;;17.97;14.33;;;;;;;;;;5094991;28;20622;-77
2022/03/17 09:44:30;;;;;;;16.37;14.10;;;;;;;;;;5094505;28;20198;-78
2022/03/17 09:46:59;;;;;;;15.70;12.47;;;;;;;;;;5094781;28;20256;-77
2022/03/17 09:49:29;;;;;;;13.77;11.73;;;;;;;;;;5094825;28;20206;-78
2022/03/17 09:52:04;;;;;;;13.00;11.27;;;;;;;;;;5094831;28;20206;-75
2022/03/17 09:54:35;;;;;;;14.77;11.87;;;;;;;;;;5094896;28;20194;-77
2022/03/17 09:57:05;;;;;;;14.03;12.63;;;;;;;;;;5094754;28;20845;-76
2022/03/17 09:59:34;;;;;;;13.03;11.10;;;;;;;;;;5095306;28;20194;-76
2022/03/17 10:02:02;;;;;;;13.73;11.40;;;;;;;;;;5094746;28;20201;-76
2022/03/17 10:04:32;;;;;;;12.13;10.93;;;;;;;;;;5094839;28;20201;-78
2022/03/17 10:07:01;;;;;;;13.63;10.73;;;;;;;;;;5094977;28;20234;-77
2022/03/17 10:09:30;;;;;;;14.00;11.60;;;;;;;;;;5094205;28;20259;-77
2022/03/17 10:12:02;;;;;;;12.20;10.20;;;;;;;;;;5094705;28;20208;-77
2022/03/17 10:14:39;;;;;;;11.93;10.13;;;;;;;;;;5094142;28;20224;-77
2022/03/17 10:17:10;;;;;;;11.23;10.00;;;;;;;;;;5094149;28;20688;-76
2022/03/17 10:19:39;;;;;;;13.83;11.10;;;;;;;;;;5094264;28;20197;-75
2022/03/17 10:22:08;;;;;;;12.83;10.60;;;;;;;;;;5095231;28;20205;-77
2022/03/17 10:24:37;;;;;;;11.00;9.80;;;;;;;;;;5094109;28;20318;-76
2022/03/17 10:27:05;;;;;;;15.27;10.80;;;;;;;;;;5093921;28;20241;-78
2022/03/17 10:29:34;;;;;;;11.13;9.87;;;;;;;;;;5094313;28;20217;-76
2022/03/17 10:32:09;;;;;;;11.37;10.10;;;;;;;;;;5087299;28;20186;-76
2022/03/17 10:34:56;;;;;;;11.97;9.73;;;;;;;;;;5073706;28;20199;-77
2022/03/17 10:37:26;;;;;;;15.90;10.23;;;;;;;;;;5089460;28;20308;-76
2022/03/17 10:39:56;;;;;;;12.57;11.23;;;;;;;;;;5090125;28;20687;-77
2022/03/17 10:42:26;;;;;;;13.67;11.50;;;;;;;;;;5073940;28;20191;-77
2022/03/17 10:44:58;;;;;;;10.50;8.63;;;;;;;;;;5086022;28;20213;-77
2022/03/17 10:47:29;;;;;;;11.80;8.57;;;;;;;;;;5078511;28;20226;-77
2022/03/17 10:50:01;;;;;;;11.37;9.03;;;;;;;;;;5073887;28;20183;-77
2022/03/17 10:52:49;;;;;;;9.90;8.77;;;;;;;;;;5073774;28;20221;-76
2022/03/17 10:55:21;;;;;;;10.63;8.10;;;;;;;;;;5073523;28;20222;-78
2022/03/17 10:57:50;;;;;;;10.07;6.97;;;;;;;;;;5081846;28;20681;-77
2022/03/17 11:00:20;;;;;;;11.50;9.80;;;;;;;;;;5093437;28;20296;-78
2022/03/17 11:02:53;;;;;;;6.73;6.00;;;;;;;;;;5093937;28;20229;-76
2022/03/17 11:05:22;;;;;;;6.67;4.93;;;;;;;;;;5093551;28;20201;-77
2022/03/17 11:07:54;;;;;;;6.70;5.23;;;;;;;;;;5076690;28;20248;-77
2022/03/17 11:10:23;;;;;;;9.70;5.93;;;;;;;;;;5092945;28;20213;-78
2022/03/17 11:12:53;;;;;;;8.23;5.93;;;;;;;;;;5093655;28;20202;-77
2022/03/17 11:15:29;;;;;;;10.00;6.33;;;;;;;;;;5092709;28;20207;-77
2022/03/17 11:18:05;;;;;;;7.77;5.50;;;;;;;;;;5071149;28;20214;-77
2022/03/17 11:20:35;;;;;;;8.87;6.10;;;;;;;;;;5071461;28;20208;-78
2022/03/17 11:23:09;;;;;;;8.40;5.30;;;;;;;;;;5074581;28;20202;-77
2022/03/17 11:25:38;;;;;;;7.93;5.70;;;;;;;;;;5091605;28;20217;-77
2022/03/17 11:28:07;;;;;;;9.03;5.30;;;;;;;;;;5091121;28;20225;-77
2022/03/17 11:30:43;;;;;;;6.80;5.60;;;;;;;;;;5092391;28;20197;-77
2022/03/17 11:33:28;;;;;;;6.10;5.50;;;;;;;;;;5097527;28;20185;-77
2022/03/17 11:35:59;;;;;;;9.03;5.87;;;;;;;;;;5097938;28;20186;-77
2022/03/17 11:38:28;;;;;;;8.30;4.33;;;;;;;;;;5097694;28;20292;-77
2022/03/17 11:41:08;;;;;;;8.70;4.77;;;;;;;;;;5097899;28;20718;-76
2022/03/17 11:43:40;;;;;;;9.90;5.33;;;;;;;;;;5097482;28;20220;-76
2022/03/17 11:46:12;;;;;;;11.73;5.50;;;;;;;;;;5098872;28;20234;-77
2022/03/17 11:48:42;;;;;;;11.77;5.83;;;;;;;;;;5099841;28;20253;-77
2022/03/17 11:51:11;;;;;;;8.47;4.70;;;;;;;;;;5097894;28;20202;-78
2022/03/17 11:53:41;;;;;;;8.03;4.30;;;;;;;;;;5097701;28;20197;-77
2022/03/17 11:56:29;;;;;;;7.63;2.70;;;;;;;;;;5097261;28;20213;-76
2022/03/17 11:58:57;;;;;;;9.10;3.70;;;;;;;;;;5096813;28;20201;-79
2022/03/17 12:01:27;;;;;;;7.13;3.17;;;;;;;;;;5100567;28;20212;-77
2022/03/17 12:03:58;;;;;;;6.23;2.80;;;;;;;;;;5100020;28;20269;-78
2022/03/17 12:06:27;;;;;;;12.03;2.80;;;;;;;;;;5080431;28;20387;-76
2022/03/17 12:08:59;;;;;;;7.07;2.90;;;;;;;;;;5077060;28;20697;-77
2022/03/17 12:11:28;;;;;;;7.17;2.40;;;;;;;;;;5077466;28;20880;-76
2022/03/17 12:14:16;;;;;;;6.53;2.80;;;;;;;;;;5088422;28;20217;-77
2022/03/17 12:16:46;;;;;;;6.10;3.80;;;;;;;;;;5099120;28;20230;-76
2022/03/17 12:19:30;;;;;;;6.50;2.40;;;;;;;;;;5098061;28;20233;-77
2022/03/17 12:22:05;;;;;;;8.30;3.50;;;;;;;;;;5098941;28;20205;-77
2022/03/17 12:24:34;;;;;;;7.17;2.77;;;;;;;;;;5097811;28;20270;-77
2022/03/17 12:27:04;;;;;;;8.80;3.00;;;;;;;;;;5097845;28;20222;-77
2022/03/17 12:29:33;;;;;;;6.07;3.33;;;;;;;;;;5078505;28;20199;-77
2022/03/17 12:32:05;;;;;;;5.53;2.20;;;;;;;;;;5078019;28;20217;-77
2022/03/17 12:34:36;;;;;;;4.97;1.90;;;;;;;;;;5082853;28;20205;-77
2022/03/17 12:37:05;;;;;;;5.63;2.40;;;;;;;;;;5094660;28;20648;-78
2022/03/17 12:39:38;;;;;;;5.03;2.13;;;;;;;;;;5080206;28;20251;-77
2022/03/17 12:42:14;;;;;;;7.03;1.90;;;;;;;;;;5097138;28;20255;-78
2022/03/17 12:44:50;;;;;;;7.10;3.17;;;;;;;;;;5095248;28;20239;-76
2022/03/17 12:47:20;;;;;;;8.27;2.10;;;;;;;;;;5096196;28;20300;-76
2022/03/17 12:49:50;;;;;;;6.43;2.07;;;;;;;;;;5096005;28;20206;-77
2022/03/17 12:52:21;;;;;;;7.57;2.77;;;;;;;;;;5098229;28;20193;-77
2022/03/17 12:54:50;;;;;;;7.87;3.00;;;;;;;;;;5096057;28;20276;-77
2022/03/17 12:57:19;;;;;;;5.27;1.77;;;;;;;;;;5096499;28;20225;-77
2022/03/17 12:59:48;;;;;;;7.40;2.13;;;;;;;;;;5097184;28;20271;-77
2022/03/17 13:02:20;;;;;;;6.70;2.00;;;;;;;;;;5096679;28;20284;-77
2022/03/17 13:04:51;;;;;;;6.93;2.17;;;;;;;;;;5097171;28;20255;-77
2022/03/17 13:07:20;;;;;;;11.47;3.00;;;;;;;;;;5097380;28;20275;-77
2022/03/17 13:09:49;;;;;;;8.87;2.33;;;;;;;;;;5096383;28;20260;-77
2022/03/17 13:15:10;;;;;;;8.77;2.27;;;;;;;;;;5095956;28;20193;-75
2022/03/17 13:17:40;;;;;;;5.10;2.17;;;;;;;;;;5094912;28;20697;-76
2022/03/17 13:20:12;;;;;;;7.43;2.07;;;;;;;;;;5096495;28;20209;-77
2022/03/17 13:22:41;;;;;;;7.13;2.10;;;;;;;;;;5097297;28;20186;-76
2022/03/17 13:25:11;;;;;;;7.10;2.53;;;;;;;;;;5096148;28;20202;-76
2022/03/17 13:27:41;;;;;;;8.93;2.40;;;;;;;;;;5097259;28;20233;-78
2022/03/17 13:30:13;;;;;;;8.37;2.97;;;;;;;;;;5096623;28;20213;-77
2022/03/17 13:32:43;;;;;;;8.20;2.27;;;;;;;;;;5095574;28;20210;-76
2022/03/17 13:35:14;;;;;;;6.90;2.40;;;;;;;;;;5095340;28;20197;-77
2022/03/17 13:37:44;;;;;;;6.97;2.37;;;;;;;;;;5095205;28;20232;-76
2022/03/17 13:40:17;;;;;;;6.33;2.13;;;;;;;;;;5094264;28;20200;-76
2022/03/17 13:43:04;;;;;;;7.80;2.20;;;;;;;;;;5094613;28;20206;-77
2022/03/17 13:45:34;;;;;;;7.70;2.30;;;;;;;;;;5091116;28;21558;-76
2022/03/17 13:48:04;;;;;;;8.93;2.63;;;;;;;;;;5092512;28;20218;-77
2022/03/17 13:50:35;;;;;;;9.23;2.30;;;;;;;;;;5080744;28;20256;-76
2022/03/17 13:53:04;;;;;;;7.53;2.47;;;;;;;;;;5090566;28;20197;-76
2022/03/17 13:55:34;;;;;;;6.23;2.27;;;;;;;;;;5082693;28;20205;-77
2022/03/17 13:58:13;;;;;;;8.43;2.10;;;;;;;;;;5086128;28;20228;-77
2022/03/17 14:00:42;;;;;;;6.03;1.93;;;;;;;;;;5090768;28;20189;-76
2022/03/17 14:03:24;;;;;;;9.27;1.77;;;;;;;;;;5077933;28;20289;-77
2022/03/17 14:06:08;;;;;;;6.03;1.70;;;;;;;;;;5092395;28;20229;-78
2022/03/17 14:08:37;;;;;;;7.40;2.10;;;;;;;;;;5093975;28;20206;-78
2022/03/17 14:11:06;;;;;;;7.67;2.10;;;;;;;;;;5086436;28;20216;-77
2022/03/17 14:13:35;;;;;;;6.83;2.17;;;;;;;;;;5094886;28;20203;-76
2022/03/17 14:16:04;;;;;;;8.10;2.37;;;;;;;;;;5086775;28;20247;-76
2022/03/17 14:18:33;;;;;;;5.87;2.10;;;;;;;;;;5085575;28;20271;-78
2022/03/17 14:21:02;;;;;;;5.93;2.13;;;;;;;;;;5086475;28;20203;-78
2022/03/17 14:26:19;;;;;;;5.03;2.17;;;;;;;;;;5090105;28;20528;-76
2022/03/17 14:28:48;;;;;;;5.40;2.23;;;;;;;;;;5091329;28;20214;-77
2022/03/17 14:31:17;;;;;;;9.03;2.37;;;;;;;;;;5087555;28;20203;-78
2022/03/17 14:33:47;;;;;;;5.37;2.27;;;;;;;;;;5089082;28;20191;-77
2022/03/17 14:36:16;;;;;;;7.63;2.23;;;;;;;;;;5093703;28;20688;-77
2022/03/17 14:38:47;;;;;;;9.43;2.30;;;;;;;;;;5081754;28;20198;-78
2022/03/17 14:41:16;;;;;;;8.57;2.30;;;;;;;;;;5087469;28;20205;-76
2022/03/17 14:43:46;;;;;;;10.60;2.50;;;;;;;;;;5081104;28;20243;-78
2022/03/17 14:46:15;;;;;;;6.03;1.73;;;;;;;;;;5089812;28;20218;-78
2022/03/17 14:48:44;;;;;;;7.77;2.40;;;;;;;;;;5089827;28;20644;-77
2022/03/17 14:51:14;;;;;;;8.73;2.43;;;;;;;;;;5090690;28;20214;-76
2022/03/17 14:53:42;;;;;;;8.30;2.10;;;;;;;;;;5079226;28;20202;-77
2022/03/17 14:56:13;;;;;;;10.03;2.40;;;;;;;;;;5086333;28;20229;-77
2022/03/17 14:58:42;;;;;;;8.60;2.97;;;;;;;;;;5084562;28;20201;-78
2022/03/17 15:01:11;;;;;;;7.43;3.67;;;;;;;;;;5090089;28;20206;-78
2022/03/17 15:03:40;;;;;;;9.90;3.00;;;;;;;;;;5091593;28;20265;-76